createdAt,value
2023-02-17T00:01:22.688Z,20.01
2023-02-17T00:04:08.347Z,20.01
2023-02-17T00:06:53.489Z,20.00
2023-02-17T00:09:38.914Z,20.01
2023-02-17T00:12:24.707Z,20.02
2023-02-17T00:15:10.318Z,20.01
2023-02-17T00:17:55.887Z,20.02
2023-02-17T00:20:41.104Z,20.01
2023-02-17T00:23:26.354Z,20.02
2023-02-17T00:26:12.263Z,20.03
2023-02-17T00:28:58.259Z,20.01
2023-02-17T00:31:45.142Z,20.01
2023-02-17T00:34:31.714Z,20.00
2023-02-17T00:37:17.458Z,20.01
2023-02-17T00:40:02.965Z,20.01
2023-02-17T00:42:49.029Z,19.99
2023-02-17T00:45:34.510Z,20.00
2023-02-17T00:48:19.895Z,19.98
2023-02-17T00:51:05.468Z,19.98
2023-02-17T00:53:53.100Z,19.99
2023-02-17T00:56:38.817Z,19.99
2023-02-17T00:59:24.027Z,19.99
2023-02-17T01:02:09.348Z,20.00
2023-02-17T01:04:55.081Z,19.98
2023-02-17T01:07:41.780Z,19.97
2023-02-17T01:10:26.794Z,19.99
2023-02-17T01:13:13.694Z,19.98
2023-02-17T01:15:59.133Z,19.97
2023-02-17T01:18:44.490Z,19.97
2023-02-17T01:21:30.872Z,19.97
2023-02-17T01:24:16.491Z,19.96
2023-02-17T01:27:01.869Z,19.95
2023-02-17T01:29:47.338Z,19.96
2023-02-17T01:32:32.755Z,19.96
2023-02-17T01:35:18.036Z,19.96
2023-02-17T01:38:03.348Z,19.94
2023-02-17T01:40:48.641Z,19.96
2023-02-17T01:43:34.350Z,19.97
2023-02-17T01:46:20.586Z,19.96
2023-02-17T01:49:15.426Z,19.94
2023-02-17T01:58:00.120Z,19.94
2023-02-17T02:00:46.631Z,19.94
2023-02-17T02:03:36.296Z,19.93
2023-02-17T02:06:26.191Z,19.93
2023-02-17T02:09:20.368Z,19.92
2023-02-17T02:12:21.876Z,19.92
2023-02-17T02:15:26.303Z,19.91
2023-02-17T02:18:26.742Z,19.91
2023-02-17T02:21:18.140Z,19.91
2023-02-17T02:24:24.761Z,19.90
2023-02-17T02:27:20.517Z,19.90
2023-02-17T02:30:16.505Z,19.90
2023-02-17T02:33:12.490Z,19.90
2023-02-17T02:36:30.498Z,19.91
2023-02-17T02:39:20.157Z,19.90
2023-02-17T02:42:09.257Z,19.90
2023-02-17T02:44:54.541Z,19.90
2023-02-17T02:47:56.825Z,19.90
2023-02-17T02:50:53.661Z,19.90
2023-02-17T02:53:56.634Z,19.90
2023-02-17T02:57:12.315Z,19.88
2023-02-17T03:00:09.168Z,19.88
2023-02-17T03:03:10.828Z,19.88
2023-02-17T03:06:09.227Z,19.89
2023-02-17T03:09:04.825Z,19.88
2023-02-17T03:11:51.058Z,19.87
2023-02-17T03:14:38.716Z,19.87
2023-02-17T03:17:24.084Z,19.86
2023-02-17T03:20:10.346Z,19.87
2023-02-17T03:22:56.256Z,19.87
2023-02-17T03:25:45.017Z,19.87
2023-02-17T03:28:31.405Z,19.87
2023-02-17T03:31:17.028Z,19.86
2023-02-17T03:34:02.798Z,19.87
2023-02-17T03:36:47.980Z,19.85
2023-02-17T03:39:33.553Z,19.86
2023-02-17T03:42:18.813Z,19.84
2023-02-17T03:45:04.813Z,19.81
2023-02-17T03:47:50.106Z,19.79
2023-02-17T03:50:35.393Z,19.80
2023-02-17T03:53:20.679Z,19.77
2023-02-17T03:56:06.555Z,19.77
2023-02-17T03:58:52.363Z,19.77
2023-02-17T04:01:37.820Z,19.76
2023-02-17T04:04:23.173Z,19.75
2023-02-17T04:07:08.582Z,19.76
2023-02-17T04:09:54.064Z,19.75
2023-02-17T04:12:39.342Z,19.73
2023-02-17T04:15:24.631Z,19.74
2023-02-17T04:18:09.833Z,19.73
2023-02-17T04:20:55.309Z,19.70
2023-02-17T04:23:40.849Z,19.71
2023-02-17T04:26:26.360Z,19.71
2023-02-17T04:29:11.743Z,19.70
2023-02-17T04:31:57.529Z,19.73
2023-02-17T04:34:43.067Z,19.74
2023-02-17T04:37:28.290Z,19.75
2023-02-17T04:40:14.020Z,19.77
2023-02-17T04:42:59.644Z,19.77
2023-02-17T04:45:45.028Z,19.77
2023-02-17T04:48:30.416Z,19.76
2023-02-17T04:51:15.746Z,19.76
2023-02-17T04:54:01.059Z,19.76
2023-02-17T04:56:46.381Z,19.76
2023-02-17T04:59:31.624Z,19.76
2023-02-17T05:02:17.113Z,19.77
2023-02-17T05:05:02.300Z,19.77
2023-02-17T05:07:48.150Z,19.83
2023-02-17T05:10:33.661Z,19.83
2023-02-17T05:13:19.216Z,19.84
2023-02-17T05:16:05.378Z,19.88
2023-02-17T05:18:50.708Z,19.88
2023-02-17T05:21:36.157Z,19.90
2023-02-17T05:30:39.935Z,19.92
2023-02-17T05:33:24.600Z,19.93
2023-02-17T05:36:10.349Z,19.92
2023-02-17T05:38:54.757Z,19.93
2023-02-17T05:41:39.982Z,19.95
2023-02-17T05:44:25.538Z,19.96
2023-02-17T05:47:10.677Z,19.95
2023-02-17T05:49:55.933Z,19.96
2023-02-17T05:52:41.147Z,19.93
2023-02-17T05:55:26.451Z,19.96
2023-02-17T05:58:11.908Z,19.97
2023-02-17T06:00:57.126Z,19.96
2023-02-17T06:03:42.567Z,19.98
2023-02-17T06:06:27.695Z,19.98
2023-02-17T06:09:13.044Z,19.97
2023-02-17T06:11:58.300Z,19.99
2023-02-17T06:14:43.416Z,19.99
2023-02-17T06:17:28.813Z,19.99
2023-02-17T06:20:14.447Z,20.00
2023-02-17T06:23:00.083Z,20.00
2023-02-17T06:25:45.937Z,20.01
2023-02-17T06:28:34.254Z,20.01
2023-02-17T06:31:20.380Z,20.00
2023-02-17T06:34:06.789Z,20.02
2023-02-17T06:36:52.260Z,20.02
2023-02-17T06:39:37.500Z,20.02
2023-02-17T06:42:22.714Z,20.02
2023-02-17T06:45:08.581Z,20.00
2023-02-17T06:47:53.804Z,20.02
2023-02-17T06:50:39.271Z,20.02
2023-02-17T06:53:24.985Z,20.02
2023-02-17T06:56:10.223Z,20.03
2023-02-17T06:58:55.509Z,20.03
2023-02-17T07:01:40.749Z,20.04
2023-02-17T07:04:26.021Z,20.03
2023-02-17T07:07:12.888Z,20.02
2023-02-17T07:09:58.304Z,20.04
2023-02-17T07:12:43.706Z,20.03
2023-02-17T07:15:29.453Z,20.04
2023-02-17T07:18:14.884Z,20.05
2023-02-17T07:21:00.716Z,20.03
2023-02-17T07:23:46.228Z,20.04
2023-02-17T07:26:31.657Z,20.05
2023-02-17T07:29:16.937Z,20.06
2023-02-17T07:32:02.220Z,20.05
2023-02-17T07:34:47.633Z,20.05
2023-02-17T07:37:34.115Z,20.04
2023-02-17T07:40:19.626Z,20.06
2023-02-17T07:43:05.111Z,20.04
2023-02-17T07:45:54.605Z,20.02
2023-02-17T07:48:40.324Z,20.02
2023-02-17T07:51:26.110Z,20.04
2023-02-17T07:54:13.251Z,20.04
2023-02-17T07:56:58.599Z,20.05
2023-02-17T07:59:43.899Z,20.04
2023-02-17T08:02:29.134Z,20.05
2023-02-17T08:05:14.462Z,20.05
2023-02-17T08:08:18.494Z,20.07
2023-02-17T08:11:22.512Z,20.05
2023-02-17T08:14:07.772Z,20.06
2023-02-17T08:16:53.444Z,20.07
2023-02-17T08:19:48.146Z,20.07
2023-02-17T08:22:33.876Z,20.08
2023-02-17T08:25:19.407Z,20.08
2023-02-17T08:28:06.136Z,20.08
2023-02-17T08:30:51.600Z,20.04
2023-02-17T08:33:37.348Z,20.07
2023-02-17T08:36:24.724Z,20.07
2023-02-17T08:39:14.252Z,20.07
2023-02-17T08:42:00.184Z,20.06
2023-02-17T08:44:45.599Z,20.08
2023-02-17T08:47:31.045Z,20.07
2023-02-17T08:50:20.113Z,20.08
2023-02-17T08:53:05.344Z,20.08
2023-02-17T08:55:50.922Z,20.08
2023-02-17T08:58:36.301Z,20.09
2023-02-17T09:01:21.985Z,20.07
2023-02-17T09:04:09.336Z,20.08
2023-02-17T09:06:58.473Z,20.09
2023-02-17T09:09:44.782Z,20.09
2023-02-17T09:12:30.758Z,20.10
2023-02-17T09:15:16.045Z,20.10
2023-02-17T09:18:01.237Z,20.12
2023-02-17T09:20:46.892Z,20.14
2023-02-17T09:23:32.401Z,20.14
2023-02-17T09:26:18.229Z,20.15
2023-02-17T09:29:04.675Z,20.14
2023-02-17T09:31:50.331Z,20.15
2023-02-17T09:34:37.597Z,20.15
2023-02-17T09:37:23.615Z,20.15
2023-02-17T09:40:15.912Z,20.16
2023-02-17T09:43:01.838Z,20.19
2023-02-17T09:45:51.410Z,20.18
2023-02-17T09:48:38.456Z,20.18
2023-02-17T09:51:30.547Z,20.18
2023-02-17T09:54:24.025Z,20.19
2023-02-17T09:57:15.875Z,20.18
2023-02-17T11:09:33.014Z,20.22
2023-02-17T11:12:25.084Z,20.20
2023-02-17T11:15:20.375Z,20.22
2023-02-17T11:18:20.402Z,20.22
2023-02-17T11:21:09.190Z,20.21
2023-02-17T11:24:04.348Z,20.21
2023-02-17T11:27:04.962Z,20.22
2023-02-17T11:29:50.383Z,20.21
2023-02-17T11:32:36.254Z,20.20
2023-02-17T11:35:46.449Z,20.21
2023-02-17T11:38:40.688Z,20.21
2023-02-17T11:41:25.667Z,20.22
2023-02-17T11:44:12.611Z,20.22
2023-02-17T11:47:28.066Z,20.22
2023-02-17T11:50:41.363Z,20.23
2023-02-17T11:53:42.368Z,20.23
2023-02-17T11:56:36.929Z,20.22
2023-02-17T11:59:50.095Z,20.23
2023-02-17T12:03:12.640Z,20.22
2023-02-17T12:06:07.641Z,20.23
2023-02-17T12:09:11.965Z,20.23
2023-02-17T12:12:21.244Z,20.23
2023-02-17T12:15:15.851Z,20.23
2023-02-17T12:18:39.041Z,20.23
2023-02-17T12:21:38.536Z,20.22
2023-02-17T12:24:45.950Z,20.23
2023-02-17T12:27:49.901Z,20.23
2023-02-17T12:30:48.454Z,20.23
2023-02-17T12:33:52.230Z,20.24
2023-02-17T12:36:40.414Z,20.23
2023-02-17T12:39:42.419Z,20.24
2023-02-17T12:43:00.787Z,20.24
2023-02-17T12:45:48.930Z,20.23
2023-02-17T12:48:38.726Z,20.23
2023-02-17T12:51:26.989Z,20.24
2023-02-17T12:54:38.272Z,20.23
2023-02-17T12:57:32.910Z,20.24
2023-02-17T13:00:26.661Z,20.24
2023-02-17T13:03:12.552Z,20.23
2023-02-17T13:06:28.212Z,20.24
2023-02-17T13:09:16.766Z,20.24
2023-02-17T13:12:22.571Z,20.25
2023-02-17T13:15:31.255Z,20.25
2023-02-17T13:18:32.596Z,20.25
2023-02-17T13:21:27.720Z,20.26
2023-02-17T13:24:31.433Z,20.26
2023-02-17T13:27:28.892Z,20.26
2023-02-17T13:30:39.499Z,20.25
2023-02-17T13:33:24.911Z,20.25
2023-02-17T13:36:17.016Z,20.25
2023-02-17T13:39:26.526Z,20.24
2023-02-17T13:42:39.053Z,20.24
2023-02-17T13:45:28.266Z,20.25
2023-02-17T13:48:23.489Z,20.24
2023-02-17T13:51:25.978Z,20.24
2023-02-17T13:54:12.643Z,20.26
2023-02-17T13:56:57.774Z,20.26
2023-02-17T13:59:43.076Z,20.25
2023-02-17T14:02:36.043Z,20.26
2023-02-17T14:05:26.250Z,20.25
2023-02-17T14:08:34.017Z,20.25
2023-02-17T14:11:22.246Z,20.26
2023-02-17T14:14:08.188Z,20.25
2023-02-17T14:17:03.878Z,20.21
2023-02-17T14:19:50.532Z,20.20
2023-02-17T14:22:37.715Z,20.19
2023-02-17T14:25:28.996Z,20.21
2023-02-17T14:28:25.924Z,20.24
2023-02-17T14:31:12.685Z,20.26
2023-02-17T14:34:02.437Z,20.27
2023-02-17T14:36:47.672Z,20.29
2023-02-17T14:39:32.966Z,20.29
2023-02-17T14:42:18.182Z,20.32
2023-02-17T14:45:03.892Z,20.34
2023-02-17T14:47:49.236Z,20.37
2023-02-17T14:50:42.208Z,20.37
2023-02-17T14:53:30.600Z,20.40
2023-02-17T14:56:36.406Z,20.41
2023-02-17T14:59:21.763Z,20.41
2023-02-17T15:02:18.955Z,20.42
2023-02-17T15:05:04.103Z,20.41
2023-02-17T15:07:49.632Z,20.40
2023-02-17T15:10:37.501Z,20.42
2023-02-17T15:13:22.784Z,20.45
2023-02-17T15:16:08.315Z,20.47
2023-02-17T15:18:54.291Z,20.48
2023-02-17T15:21:44.234Z,20.49
2023-02-17T15:24:36.547Z,20.50
2023-02-17T15:27:22.010Z,20.52
2023-02-17T15:30:11.955Z,20.52
2023-02-17T15:32:57.453Z,20.54
2023-02-17T15:35:43.356Z,20.53
2023-02-17T15:38:28.874Z,20.52
2023-02-17T15:41:21.770Z,20.50
2023-02-17T15:44:14.369Z,20.48
2023-02-17T15:47:00.797Z,20.47
2023-02-17T15:49:46.731Z,20.45
2023-02-17T15:52:31.964Z,20.48
2023-02-17T15:55:20.694Z,20.49
2023-02-17T15:58:10.421Z,20.50
2023-02-17T16:01:01.588Z,20.52
2023-02-17T16:03:47.177Z,20.51
2023-02-17T16:06:32.642Z,20.51
2023-02-17T16:09:20.059Z,20.52
2023-02-17T16:12:08.475Z,20.51
2023-02-17T16:14:55.305Z,20.49
2023-02-17T16:17:40.549Z,20.46
2023-02-17T16:20:34.997Z,20.44
2023-02-17T16:23:20.581Z,20.43
2023-02-17T16:26:12.996Z,20.42
2023-02-17T16:29:00.160Z,20.43
2023-02-17T16:31:46.563Z,20.49
2023-02-17T16:34:34.859Z,20.52
2023-02-17T16:37:20.385Z,20.56
2023-02-17T16:40:17.183Z,20.59
2023-02-17T16:43:03.834Z,20.63
2023-02-17T16:45:58.534Z,20.59
2023-02-17T16:48:43.801Z,20.60
2023-02-17T16:51:29.247Z,20.60
2023-02-17T16:54:16.864Z,20.61
2023-02-17T16:57:02.055Z,20.63
2023-02-17T16:59:47.495Z,20.62
2023-02-17T17:02:33.006Z,20.62
2023-02-17T17:05:19.701Z,20.63
2023-02-17T17:08:06.804Z,20.65
2023-02-17T17:10:52.235Z,20.64
2023-02-17T17:13:37.511Z,20.66
2023-02-17T17:16:26.752Z,20.66
2023-02-17T17:19:13.472Z,20.65
2023-02-17T17:21:58.640Z,20.62
2023-02-17T17:24:45.219Z,20.61
2023-02-17T17:27:32.742Z,20.59
2023-02-17T17:30:22.707Z,20.56
2023-02-17T17:33:07.888Z,20.54
2023-02-17T17:35:53.891Z,20.51
2023-02-17T17:38:39.544Z,20.50
2023-02-17T17:41:26.884Z,20.47
2023-02-17T17:44:14.655Z,20.46
2023-02-17T17:47:00.769Z,20.43
2023-02-17T17:50:13.523Z,20.42
2023-02-17T17:53:00.090Z,20.39
2023-02-17T17:55:46.390Z,20.39
2023-02-17T17:58:41.343Z,20.36
2023-02-17T18:01:27.579Z,20.33
2023-02-17T18:04:13.718Z,20.32
2023-02-17T18:06:59.561Z,20.30
2023-02-17T18:09:45.440Z,20.30
2023-02-17T18:12:33.539Z,20.29
2023-02-17T18:15:19.306Z,20.29
2023-02-17T18:18:05.655Z,20.27
2023-02-17T18:20:51.536Z,20.27
2023-02-17T18:23:36.829Z,20.26
2023-02-17T18:26:24.828Z,20.24
2023-02-17T18:29:12.056Z,20.25
2023-02-17T18:31:59.339Z,20.23
2023-02-17T18:34:46.074Z,20.23
2023-02-17T18:37:31.670Z,20.22
2023-02-17T18:40:21.354Z,20.22
2023-02-17T18:43:08.236Z,20.20
2023-02-17T18:45:53.853Z,20.21
2023-02-17T18:48:41.165Z,20.22
2023-02-17T18:51:27.751Z,20.22
2023-02-17T18:54:14.608Z,20.22
2023-02-17T18:57:01.784Z,20.21
2023-02-17T18:59:47.302Z,20.21
2023-02-17T19:02:36.969Z,20.21
2023-02-17T19:05:23.618Z,20.21
2023-02-17T19:08:10.164Z,20.18
2023-02-17T19:10:55.944Z,20.19
2023-02-17T19:13:41.734Z,20.19
2023-02-17T19:19:54.190Z,20.20
2023-02-17T19:22:39.947Z,20.19
2023-02-17T19:25:25.752Z,20.18
2023-02-17T19:28:11.288Z,20.19
2023-02-17T19:30:57.404Z,20.18
2023-02-17T19:33:44.337Z,20.18
2023-02-17T19:36:29.618Z,20.18
2023-02-17T19:39:15.133Z,20.18
2023-02-17T19:44:43.079Z,20.18
2023-02-17T19:47:30.123Z,20.15
2023-02-17T19:50:17.304Z,20.17
2023-02-17T19:53:03.993Z,20.16
2023-02-17T19:55:49.048Z,20.15
2023-02-17T19:58:34.048Z,20.15
2023-02-17T20:04:24.490Z,20.15
2023-02-17T20:07:09.886Z,20.14
2023-02-17T20:09:55.706Z,20.14
2023-02-17T20:12:41.107Z,20.16
2023-02-17T20:15:26.686Z,20.14
2023-02-17T20:18:11.981Z,20.14
2023-02-17T20:20:57.431Z,20.12
2023-02-17T20:23:43.723Z,20.10
2023-02-17T20:26:37.869Z,20.11
2023-02-17T20:29:23.257Z,20.11
2023-02-17T20:32:08.817Z,20.11
2023-02-17T20:34:54.207Z,20.12
2023-02-17T20:37:39.921Z,20.10
2023-02-17T20:40:35.441Z,20.10
2023-02-17T20:43:21.586Z,20.09
2023-02-17T20:46:07.901Z,20.10
2023-02-17T20:48:54.455Z,20.09
2023-02-17T20:51:40.542Z,20.11
2023-02-17T20:54:27.279Z,20.10
2023-02-17T20:57:15.289Z,20.11
2023-02-17T21:00:00.780Z,20.11
2023-02-17T21:02:46.147Z,20.10
2023-02-17T21:05:31.443Z,20.10
2023-02-17T21:08:16.943Z,20.11
2023-02-17T21:11:02.128Z,20.11
2023-02-17T21:13:47.703Z,20.10
2023-02-17T21:16:33.238Z,20.10
2023-02-17T21:19:19.558Z,20.10
2023-02-17T21:22:05.465Z,20.10
2023-02-17T21:24:50.987Z,20.09
2023-02-17T21:27:36.757Z,20.09
2023-02-17T21:30:22.116Z,20.09
2023-02-17T21:33:07.575Z,20.10
2023-02-17T21:35:53.595Z,20.07
2023-02-17T21:38:39.908Z,20.07
2023-02-17T21:41:27.670Z,20.08
2023-02-17T21:44:31.789Z,20.08
2023-02-17T21:47:17.216Z,20.07
2023-02-17T21:50:02.404Z,20.06
2023-02-17T21:52:47.778Z,20.06
2023-02-17T21:55:33.074Z,20.05
2023-02-17T21:58:18.752Z,20.05
2023-02-17T22:01:06.211Z,20.05
2023-02-17T22:03:52.160Z,20.05
2023-02-17T22:06:40.706Z,20.03
2023-02-17T22:09:26.386Z,20.03
2023-02-17T22:12:11.570Z,20.04
2023-02-17T22:14:57.126Z,20.03
2023-02-17T22:17:42.474Z,20.04
2023-02-17T22:20:28.845Z,20.04
2023-02-17T22:23:14.340Z,20.05
2023-02-17T22:25:59.627Z,20.06
2023-02-17T22:28:45.208Z,20.08
2023-02-17T22:31:32.300Z,20.07
2023-02-17T22:34:17.700Z,20.08
2023-02-17T22:37:03.311Z,20.07
2023-02-17T22:39:52.768Z,20.07
2023-02-17T22:42:38.138Z,20.09
2023-02-17T22:45:23.482Z,20.10
2023-02-17T22:48:08.710Z,20.10
2023-02-17T22:50:54.155Z,20.08
2023-02-17T22:53:39.670Z,20.09
2023-02-17T22:56:25.419Z,20.09
2023-02-17T22:59:10.803Z,20.09
2023-02-17T23:01:59.088Z,20.11
2023-02-17T23:04:44.375Z,20.11
2023-02-17T23:07:29.440Z,20.09
2023-02-17T23:10:14.870Z,20.09
2023-02-17T23:13:00.313Z,20.09
2023-02-17T23:15:45.757Z,20.09
2023-02-17T23:18:33.680Z,20.08
2023-02-17T23:21:20.127Z,20.07
2023-02-17T23:24:05.817Z,20.09
2023-02-17T23:26:51.971Z,20.08
2023-02-17T23:29:39.151Z,20.09
2023-02-17T23:32:24.733Z,20.09
2023-02-17T23:35:11.782Z,20.09
2023-02-17T23:37:57.374Z,20.10
2023-02-17T23:40:47.336Z,20.09
2023-02-17T23:43:32.842Z,20.09
2023-02-17T23:46:18.324Z,20.09
2023-02-17T23:49:04.041Z,20.08
2023-02-17T23:51:49.258Z,20.11
2023-02-17T23:54:34.608Z,20.10
2023-02-17T23:57:20.017Z,20.09
